Latest Weather Observations for Scotts Peak

IDT60801

Issued at 6:02 pm EDT Friday 19 December 2014 (issued every 30 minutes, with the page automatically refreshed every 10 minutes)

About weather observations | Map of weather stations | Latest weather observations for TAS | Other Formats
Station Details ID: 097083 Name: SCOTTS PEAK DAM Lat: -43.04 Lon: 146.27 Height: 408.0 m
Data from the previous 72 hours. | See also: Recent months at Scotts Peak
Date/Time
EDT
Temp
°C
App
Temp
°C
Dew
Point
Rel
Hum
%
Delta-T
°C
Wind Press
QNH
hPa
Press
MSL
hPa
Rain
since 9 am
mm
Dir
 
Spd
km/h
Gust
km/h
Spd
kts
Gust
kts
19/06:00pm 11.6 4.0 4.1 60 3.4 NW 33 46 18 25 - - 0.2
19/05:30pm 11.8 2.7 3.8 58 3.7 NW 41 50 22 27 - - 0.2
19/05:00pm 12.6 5.2 5.1 60 3.5 NW 33 43 18 23 - - 0.2
19/04:30pm 12.4 4.3 5.1 61 3.4 NW 37 48 20 26 - - 0.2
19/04:00pm 11.8 2.3 3.8 58 3.7 NW 43 56 23 30 - - 0.2
19/03:42pm 13.5 5.1 5.4 58 3.9 WNW 39 50 21 27 - - 0.2
19/03:32pm 12.1 4.5 2.6 52 4.2 WNW 32 50 17 27 - - 0.2
19/03:30pm 12.4 5.7 3.4 54 4.1 WNW 28 41 15 22 - - 0.2
19/03:10pm 13.3 5.7 3.1 50 4.6 WNW 32 50 17 27 - - 0.2
19/03:00pm 14.1 6.6 4.7 53 4.5 W 33 46 18 25 - - 0.2
19/02:39pm 13.3 5.3 1.6 45 5.2 W 33 46 18 25 - - 0.2
19/02:30pm 13.6 4.5 1.9 45 5.2 WNW 39 52 21 28 - - 0.2
19/02:23pm 13.2 3.9 0.3 41 5.5 WNW 39 57 21 31 - - 0.2
19/02:00pm 14.1 5.6 3.3 48 5.0 WNW 37 50 20 27 - - 0.2
19/01:52pm 12.4 4.0 1.7 48 4.7 W 35 48 19 26 - - 0.2
19/01:49pm 13.2 5.1 3.0 50 4.6 W 35 50 19 27 - - 0.2
19/01:30pm 13.7 5.2 2.9 48 4.9 WNW 37 46 20 25 - - 0.2
19/01:00pm 14.4 6.9 4.7 52 4.6 WNW 33 46 18 25 - - 0.2
19/12:41pm 12.5 3.9 0.3 43 5.2 WNW 35 52 19 28 - - 0.2
19/12:37pm 12.2 3.5 1.8 49 4.6 WNW 37 50 20 27 - - 0.2
19/12:30pm 13.6 4.9 2.2 46 5.1 WNW 37 46 20 25 - - 0.2
19/12:00pm 12.7 4.1 2.6 50 4.5 WNW 37 48 20 26 - - 0.2
19/11:30am 11.9 4.2 2.4 52 4.2 WNW 32 43 17 23 - - 0.0
19/11:13am 12.4 4.6 4.9 60 3.5 WNW 35 54 19 29 - - 0.0
19/11:00am 10.4 2.4 3.7 63 3.0 WNW 35 46 19 25 - - 0.0
19/10:30am 11.3 4.4 6.4 72 2.4 WNW 32 52 17 28 - - 0.0
19/10:29am 12.5 6.4 8.2 75 2.2 WNW 30 48 16 26 - - 0.0
19/10:00am 10.4 3.2 5.0 69 2.5 NW 32 41 17 22 - - 0.0
19/09:30am 10.3 4.0 5.5 72 2.2 WNW 28 37 15 20 - - 0.0
19/09:00am 9.4 3.2 6.1 80 1.6 WNW 28 35 15 19 - - 8.6
19/08:30am 9.0 3.2 6.4 84 1.2 WNW 26 33 14 18 - - 8.6
19/08:00am 8.0 4.6 6.0 87 0.9 W 13 20 7 11 - - 8.6
19/07:30am 7.0 3.1 5.5 90 0.7 W 15 20 8 11 - - 8.6
19/07:00am 6.7 2.7 5.0 89 0.8 W 15 19 8 10 - - 8.6
19/06:30am 6.3 2.2 4.3 87 0.9 W 15 20 8 11 - - 8.6
19/06:00am 6.2 1.7 4.4 88 0.8 WSW 17 24 9 13 - - 8.6
19/05:30am 6.3 1.3 4.6 89 0.8 W 20 30 11 16 - - 8.6
19/05:00am 6.3 1.6 5.1 92 0.5 W 19 28 10 15 - - 8.4
19/04:30am 6.3 -0.9 5.1 92 0.5 WSW 32 44 17 24 - - 8.0
19/04:00am 6.4 0.6 4.4 87 0.9 W 24 32 13 17 - - 7.4
19/03:30am 6.6 0.1 4.9 89 0.8 W 28 35 15 19 - - 7.4
19/03:00am 6.6 -0.6 4.8 88 0.8 W 32 43 17 23 - - 7.2
19/02:57am 6.5 0.0 4.8 89 0.8 W 28 43 15 23 - - 7.0
19/02:30am 7.1 3.1 4.9 86 1.0 W 15 22 8 12 - - 6.2
19/02:00am 6.8 1.5 4.8 87 0.9 WNW 22 35 12 19 - - 6.0
19/01:30am 7.0 1.8 5.3 89 0.8 WNW 22 30 12 16 - - 6.0
19/01:00am 7.0 3.2 5.8 92 0.6 WSW 15 22 8 12 - - 6.0
19/12:30am 7.2 1.6 5.5 89 0.8 W 24 32 13 17 - - 6.0
19/12:00am 6.8 1.6 5.3 90 0.7 WNW 22 33 12 18 - - 6.0
 
Date/Time
EDT
Temp
°C
App
Temp
°C
Dew
Point
Rel
Hum
%
Delta-T
°C
Wind Press
QNH
hPa
Press
MSL
hPa
Rain
since 9 am
mm
Dir
 
Spd
km/h
Gust
km/h
Spd
kts
Gust
kts
18/11:30pm 7.4 0.2 5.9 90 0.7 W 33 43 18 23 - - 5.8
18/11:00pm 7.4 -0.2 5.7 89 0.8 W 35 44 19 24 - - 5.4
18/10:30pm 7.4 -0.2 5.9 90 0.7 WNW 35 46 19 25 - - 5.0
18/10:00pm 7.0 -0.2 5.8 92 0.6 WNW 33 43 18 23 - - 4.6
18/09:30pm 7.3 -1.5 5.4 88 0.9 W 41 54 22 29 - - 3.8
18/09:26pm 7.5 -0.3 5.0 84 1.1 W 35 54 19 29 - - 3.6
18/09:00pm 8.1 0.4 5.2 82 1.3 WNW 35 52 19 28 - - 3.4
18/08:30pm 8.9 1.6 5.5 79 1.6 WNW 33 46 18 25 - - 3.2
18/08:00pm 8.8 1.7 5.4 79 1.6 WNW 32 39 17 21 - - 3.2
18/07:30pm 9.2 1.8 6.6 84 1.2 WNW 35 43 19 23 - - 3.2
18/07:00pm 9.5 2.4 6.6 82 1.4 WNW 33 43 18 23 - - 3.2
18/06:30pm 10.4 3.5 6.5 77 1.9 WNW 32 46 17 25 - - 3.2
18/06:05pm 11.5 4.9 8.4 81 1.6 WNW 33 50 18 27 - - 3.2
18/06:01pm 11.4 4.1 8.8 84 1.3 WNW 37 52 20 28 - - 3.2
18/06:00pm 11.2 3.9 8.6 84 1.3 WNW 37 52 20 28 - - 3.2
18/05:30pm 10.3 3.7 7.7 84 1.3 WNW 32 39 17 21 - - 3.2
18/05:21pm 10.3 2.1 8.4 88 0.9 WNW 41 59 22 32 - - 3.2
18/05:00pm 9.8 -0.7 8.7 93 0.6 NW 54 70 29 38 - - 3.2
18/04:52pm 10.0 1.4 8.1 88 0.9 WNW 43 61 23 33 - - 3.0
18/04:30pm 10.1 0.7 7.3 83 1.4 WNW 46 59 25 32 - - 3.0
18/04:12pm 11.0 5.3 9.8 92 0.6 NW 30 50 16 27 - - 2.8
18/04:00pm 11.9 7.0 11.3 96 0.3 NW 28 33 15 18 - - 2.8
18/03:30pm 11.3 3.0 10.0 92 0.7 NNW 44 56 24 30 - - 2.2
18/03:09pm 10.5 1.3 9.4 93 0.6 NW 48 69 26 37 - - 2.2
18/03:00pm 10.3 1.8 9.2 93 0.6 NW 44 59 24 32 - - 2.2
18/02:30pm 10.9 1.5 10.1 95 0.4 NW 50 67 27 36 - - 2.2
18/02:11pm 10.1 -0.5 8.4 89 0.8 NW 54 76 29 41 - - 1.6
18/02:10pm 10.3 0.1 8.4 88 0.9 NW 52 69 28 37 - - 1.4
18/02:00pm 12.1 4.1 11.2 94 0.5 NNW 44 56 24 30 - - 1.0
18/01:30pm 12.7 3.4 9.3 80 1.8 NNW 48 70 26 38 - - 0.0
18/01:23pm 13.8 6.3 9.6 76 2.2 NNW 39 70 21 38 - - 0.0
18/01:00pm 15.2 8.7 8.0 62 3.7 N 32 44 17 24 - - 0.0
18/12:30pm 14.6 8.3 7.2 61 3.7 NNW 30 41 16 22 - - 0.0
18/12:00pm 14.6 7.5 8.1 65 3.3 NNW 35 46 19 25 - - 0.0
18/11:32am 14.3 7.2 6.6 60 3.8 N 33 57 18 31 - - 0.0
18/11:30am 14.6 7.9 7.4 62 3.6 NNW 32 46 17 25 - - 0.0
18/11:00am 13.2 6.6 7.9 70 2.7 NNW 32 41 17 22 - - 0.0
18/10:30am 13.4 4.4 7.4 67 3.0 NNW 44 54 24 29 - - 0.0
18/10:03am 13.5 8.2 6.8 64 3.3 NNW 24 44 13 24 - - 0.0
18/10:00am 13.6 9.4 7.4 66 3.1 N 19 22 10 12 - - 0.0
18/09:30am 14.8 11.6 8.5 66 3.2 NNW 15 20 8 11 - - 0.0
18/09:00am 11.8 7.3 5.9 67 2.8 NNE 19 28 10 15 - - 1.0
18/08:30am 12.0 8.4 6.7 70 2.6 N 15 20 8 11 - - 1.0
18/08:00am 11.3 7.3 6.6 73 2.3 N 17 26 9 14 - - 1.0
18/07:30am 10.6 6.1 6.0 73 2.2 N 19 28 10 15 - - 1.0
18/07:00am 10.3 6.5 5.9 74 2.1 N 15 24 8 13 - - 1.0
18/06:30am 9.5 3.9 5.3 75 1.9 N 24 33 13 18 - - 1.0
18/06:00am 9.0 4.1 5.2 77 1.7 N 20 28 11 15 - - 1.0
18/05:30am 8.6 4.2 5.0 78 1.6 N 17 24 9 13 - - 1.0
18/05:00am 8.5 4.1 4.9 78 1.6 N 17 26 9 14 - - 1.0
18/04:30am 8.4 3.5 5.3 81 1.4 N 20 28 11 15 - - 1.0
18/04:00am 8.6 3.8 5.4 80 1.5 N 20 26 11 14 - - 1.0
18/03:30am 8.6 3.7 5.0 78 1.6 N 20 26 11 14 - - 1.0
18/03:00am 8.6 3.9 5.0 78 1.6 NNW 19 26 10 14 - - 1.0
18/02:30am 8.6 2.6 5.2 79 1.6 NNW 26 32 14 17 - - 1.0
18/02:00am 8.8 3.2 5.2 78 1.7 NNW 24 30 13 16 - - 1.0
18/01:30am 8.6 3.3 5.0 78 1.6 NNW 22 32 12 17 - - 1.0
18/01:00am 8.6 2.2 5.4 80 1.5 NNW 28 33 15 18 - - 1.0
18/12:30am 8.5 1.3 4.9 78 1.6 NNW 32 37 17 20 - - 1.0
18/12:00am 8.8 1.6 4.8 76 1.8 NNW 32 39 17 21 - - 1.0
 
Date/Time
EDT
Temp
°C
App
Temp
°C
Dew
Point
Rel
Hum
%
Delta-T
°C
Wind Press
QNH
hPa
Press
MSL
hPa
Rain
since 9 am
mm
Dir
 
Spd
km/h
Gust
km/h
Spd
kts
Gust
kts
17/11:30pm 8.8 2.4 5.0 77 1.7 NNW 28 33 15 18 - - 1.0
17/11:00pm 8.6 2.2 5.2 79 1.6 N 28 35 15 19 - - 1.0
17/10:30pm 8.9 2.2 5.5 79 1.6 NNW 30 39 16 21 - - 1.0
17/10:00pm 9.1 1.8 5.3 77 1.8 NNW 33 41 18 22 - - 1.0
17/09:30pm 9.2 1.5 5.4 77 1.8 NNW 35 43 19 23 - - 1.0
17/09:00pm 9.4 2.2 5.8 78 1.7 NNW 33 43 18 23 - - 1.0
17/08:30pm 9.6 3.3 5.6 76 1.9 NNW 28 39 15 21 - - 1.0
17/08:00pm 10.4 5.1 6.7 78 1.8 NNW 24 32 13 17 - - 1.0
17/07:30pm 10.5 4.8 6.5 76 1.9 NW 26 35 14 19 - - 1.0
17/07:00pm 9.8 3.0 6.7 81 1.5 NW 32 46 17 25 - - 1.0
17/06:30pm 11.3 4.9 6.8 74 2.2 NW 30 43 16 23 - - 1.0
17/06:00pm 10.4 2.9 6.5 77 1.9 NW 35 43 19 23 - - 1.0
17/05:37pm 9.6 3.6 6.9 83 1.3 NW 28 54 15 29 - - 0.8
17/05:30pm 10.1 4.8 8.4 89 0.8 NNW 26 33 14 18 - - 0.8
17/05:00pm 10.5 3.9 7.9 84 1.3 NW 32 43 17 23 - - 0.8
17/04:30pm 11.6 3.8 4.8 63 3.2 WNW 35 52 19 28 - - 0.6
17/04:00pm 13.3 4.1 3.7 52 4.4 NW 41 54 22 29 - - 0.6
17/03:31pm 14.0 5.6 3.8 50 4.7 NW 37 56 20 30 - - 0.6
17/03:30pm 14.1 5.5 2.7 46 5.2 NW 37 50 20 27 - - 0.6
17/03:03pm 14.4 6.9 4.4 51 4.7 NW 33 52 18 28 - - 0.6
17/03:00pm 14.6 7.5 5.7 55 4.3 WNW 32 44 17 24 - - 0.6
17/02:45pm 13.5 5.5 3.6 51 4.6 WNW 35 54 19 29 - - 0.6
17/02:30pm 16.5 8.8 7.2 54 4.7 NW 37 48 20 26 - - 0.6
17/02:00pm 13.9 6.5 3.9 51 4.7 WNW 32 44 17 24 - - 0.6
17/01:35pm 12.4 4.2 2.6 51 4.4 NW 35 48 19 26 - - 0.6
17/01:30pm 14.8 6.8 5.6 54 4.5 NW 37 48 20 26 - - 0.6
17/01:23pm 13.9 6.9 5.8 58 3.9 WNW 32 44 17 24 - - 0.6
17/01:00pm 12.4 5.2 3.1 53 4.2 WNW 30 39 16 21 - - 0.6
17/12:50pm 13.3 5.0 4.2 54 4.2 WNW 37 56 20 30 - - 0.4
17/12:30pm 12.0 2.3 0.8 46 4.8 WNW 41 56 22 30 - - 0.4
17/12:12pm 12.4 3.1 2.8 52 4.3 WNW 41 61 22 33 - - 0.4
17/12:00pm 11.5 4.1 3.8 59 3.5 W 32 43 17 23 - - 0.4
17/11:43am 11.9 2.6 5.1 63 3.2 WNW 43 54 23 29 - - 0.4
17/11:30am 13.6 6.3 8.9 73 2.4 NW 37 46 20 25 - - 0.4
17/11:25am 13.4 5.7 8.7 73 2.4 NW 39 57 21 31 - - 0.4
17/11:00am 11.2 2.0 8.2 82 1.5 NW 46 56 25 30 - - 0.4
17/10:50am 10.9 3.4 4.4 64 3.0 WNW 33 57 18 31 - - 0.4
17/10:30am 9.5 2.7 4.9 73 2.1 WNW 30 41 16 22 - - 0.4
17/10:00am 9.4 1.9 6.5 82 1.4 WNW 35 43 19 23 - - 0.4
17/09:30am 6.8 0.0 5.1 89 0.8 W 30 44 16 24 - - 0.4
17/09:00am 7.3 1.9 4.6 83 1.2 W 22 33 12 18 - - 13.2
17/08:30am 8.2 0.8 5.0 80 1.5 W 33 43 18 23 - - 12.8
17/08:00am 7.2 -0.9 5.2 87 0.9 WNW 37 46 20 25 - - 12.8
17/07:30am 6.7 -0.8 4.7 87 0.9 WNW 33 41 18 22 - - 12.8
17/07:15am 6.2 -0.7 4.7 90 0.7 WNW 30 46 16 25 - - 12.8
17/07:00am 6.6 1.3 4.9 89 0.8 WNW 22 28 12 15 - - 12.0
17/06:30am 6.4 -1.1 4.2 86 1.0 WNW 33 41 18 22 - - 11.6
17/06:00am 5.9 -2.0 4.2 89 0.7 WNW 35 43 19 23 - - 11.6
17/05:30am 5.7 -0.9 4.0 89 0.7 W 28 50 15 27 - - 11.4
17/05:06am 6.2 -1.3 3.7 84 1.1 W 32 50 17 27 - - 11.2
17/05:00am 6.4 -2.8 3.6 82 1.2 WNW 41 52 22 28 - - 11.2
17/04:30am 6.0 -2.8 3.7 85 1.0 WNW 39 48 21 26 - - 11.2
17/04:13am 6.3 -2.7 4.6 89 0.8 WNW 41 63 22 34 - - 11.2
17/04:00am 6.0 -2.3 4.2 88 0.8 WNW 37 50 20 27 - - 11.2
17/03:38am 5.9 -2.0 4.4 90 0.7 WNW 35 54 19 29 - - 11.2
17/03:30am 6.0 -2.7 4.3 89 0.7 WNW 39 56 21 30 - - 11.0
17/03:00am 6.6 -2.9 4.1 84 1.1 WNW 43 56 23 30 - - 10.4
17/02:30am 6.4 -4.0 4.4 87 0.9 W 48 61 26 33 - - 10.4
17/02:00am 6.9 -3.6 3.9 81 1.3 W 48 67 26 36 - - 10.0
17/01:30am 7.5 -0.1 3.7 77 1.7 WNW 33 56 18 30 - - 9.8
17/01:08am 7.3 0.9 5.1 86 1.0 WNW 28 46 15 25 - - 9.8
17/01:00am 7.2 -1.0 4.9 85 1.0 WNW 37 48 20 26 - - 9.8
17/12:30am 7.5 -1.4 5.3 86 1.0 WNW 41 56 22 30 - - 9.8
17/12:00am 7.3 -1.7 6.2 93 0.5 WNW 43 67 23 36 - - 9.8
 
Date/Time
EDT
Temp
°C
App
Temp
°C
Dew
Point
Rel
Hum
%
Delta-T
°C
Wind Press
QNH
hPa
Press
MSL
hPa
Rain
since 9 am
mm
Dir
 
Spd
km/h
Gust
km/h
Spd
kts
Gust
kts
16/11:30pm 7.6 -1.4 6.5 93 0.5 WNW 43 63 23 34 - - 9.4
16/11:16pm 7.9 -0.6 7.0 94 0.4 WNW 41 63 22 34 - - 9.0
16/11:00pm 7.9 1.0 7.1 95 0.4 WNW 33 43 18 23 - - 8.4
16/10:35pm 8.2 1.5 7.3 94 0.4 WNW 32 54 17 29 - - 7.0
16/10:30pm 8.3 1.6 7.2 93 0.5 WNW 32 44 17 24 - - 7.0
16/10:01pm 8.3 -0.1 7.2 93 0.5 WNW 41 59 22 32 - - 6.4
16/10:00pm 8.2 -0.6 7.3 94 0.4 WNW 43 59 23 32 - - 6.2
16/09:30pm 8.6 -0.2 7.4 92 0.6 WNW 43 56 23 30 - - 5.6
16/09:15pm 8.5 0.6 7.7 95 0.4 WNW 39 65 21 35 - - 5.6
16/09:00pm 8.7 -0.4 8.3 97 0.2 NW 46 52 25 28 - - 4.8
16/08:30pm 8.4 -2.4 7.8 96 0.3 NW 54 72 29 39 - - 4.2
16/08:00pm 8.7 -3.1 7.3 91 0.7 WNW 59 83 32 45 - - 3.6
16/07:30pm 9.6 -3.0 8.7 94 0.5 NW 65 83 35 45 - - 3.0
16/07:00pm 10.9 0.6 9.7 92 0.6 NNW 54 74 29 40 - - 2.4
16/06:30pm 13.2 2.7 8.9 75 2.2 NNW 54 80 29 43 - - 1.6

Other Formats:

Comma delimited format used in spreadsheet applications
http://www.bom.gov.au/fwo/IDT60801/IDT60801.95958.axf

JavaScript Object Notation format (JSON) in row-major order
http://www.bom.gov.au/fwo/IDT60801/IDT60801.95958.json